Time;durP1;ratioP1;P1;durP2;ratioP2;P2;SDS_P1;SDS_P2;PMS_P1;PMS_P2;Temp;Humidity;BMP_temperature;BMP_pressure;BME280_temperature;BME280_humidity;BME280_pressure;Samples;Min_cycle;Max_cycle;Signal;HPM_P1;HPM_P2
2022/05/21 00:00:30;;;;;;;23.30;4.07;;;12.70;96.80;;;;;;5006701;28;20033;-78
2022/05/21 00:02:56;;;;;;;19.67;4.22;;;12.70;96.90;;;;;;5009847;28;20030;-76
2022/05/21 00:05:24;;;;;;;18.70;3.42;;;12.60;97.00;;;;;;5002487;28;20519;-76
2022/05/21 00:07:51;;;;;;;28.15;4.93;;;12.60;97.10;;;;;;5008645;28;20030;-76
2022/05/21 00:10:17;;;;;;;19.60;4.35;;;12.60;97.20;;;;;;5037064;28;20030;-77
2022/05/21 00:12:44;;;;;;;24.75;4.10;;;12.60;97.30;;;;;;5006848;28;20022;-76
2022/05/21 00:15:12;;;;;;;21.88;3.90;;;12.50;97.40;;;;;;5008332;28;20064;-76
2022/05/21 00:17:38;;;;;;;22.23;3.78;;;12.50;97.50;;;;;;5009485;28;20076;-77
2022/05/21 00:20:07;;;;;;;29.17;4.88;;;12.50;97.60;;;;;;5010025;28;20376;-76
2022/05/21 00:22:32;;;;;;;21.05;4.18;;;12.50;97.70;;;;;;5008983;28;20058;-77
2022/05/21 00:24:58;;;;;;;22.08;4.32;;;12.50;97.80;;;;;;5008294;28;20500;-76
2022/05/21 00:27:24;;;;;;;22.17;4.22;;;12.40;97.90;;;;;;5006935;28;20469;-75
2022/05/21 00:29:49;;;;;;;20.38;3.67;;;12.40;97.90;;;;;;5008117;28;20046;-77
2022/05/21 00:32:15;;;;;;;17.38;3.97;;;12.30;98.00;;;;;;5008866;28;20502;-77
2022/05/21 00:34:41;;;;;;;21.45;3.92;;;12.30;98.10;;;;;;5008354;28;20378;-76
2022/05/21 00:37:06;;;;;;;22.88;4.05;;;12.30;98.10;;;;;;5009718;28;20052;-76
2022/05/21 00:39:32;;;;;;;23.88;4.47;;;12.30;98.10;;;;;;5009033;28;20464;-76
2022/05/21 00:42:07;;;;;;;21.88;3.42;;;12.30;98.00;;;;;;5008434;28;20033;-76
2022/05/21 00:44:33;;;;;;;23.58;4.75;;;12.30;98.00;;;;;;5003554;28;20030;-78
2022/05/21 00:46:59;;;;;;;19.48;3.92;;;12.30;97.90;;;;;;5023564;28;20053;-76
2022/05/21 00:49:33;;;;;;;21.00;4.00;;;12.20;97.90;;;;;;5009029;28;20140;-75
2022/05/21 00:52:21;;;;;;;20.48;3.70;;;12.30;97.90;;;;;;5008009;28;20377;-76
2022/05/21 00:54:53;;;;;;;19.83;3.28;;;12.30;97.70;;;;;;5005304;28;20455;-75
2022/05/21 00:57:28;;;;;;;19.38;4.07;;;12.30;97.60;;;;;;5007704;28;20033;-77
2022/05/21 00:59:59;;;;;;;26.27;4.15;;;12.40;97.50;;;;;;5037099;28;20022;-77
2022/05/21 01:02:55;;;;;;;21.30;4.55;;;12.30;97.30;;;;;;5007059;28;20035;-76
2022/05/21 01:05:24;;;;;;;20.95;4.10;;;12.30;97.30;;;;;;5003760;28;20029;-77
2022/05/21 01:07:52;;;;;;;18.95;3.75;;;12.30;97.10;;;;;;5006919;28;20125;-77
2022/05/21 01:10:21;;;;;;;29.23;4.60;;;12.30;97.10;;;;;;5034452;28;20052;-77
2022/05/21 01:12:53;;;;;;;21.65;3.95;;;12.30;97.20;;;;;;5005496;28;20057;-77
2022/05/21 01:15:25;;;;;;;20.13;3.83;;;12.30;97.20;;;;;;5008937;28;20558;-76
2022/05/21 01:17:50;;;;;;;21.05;4.00;;;12.20;97.30;;;;;;5007552;28;20076;-77
2022/05/21 01:20:20;;;;;;;17.77;3.30;;;12.20;97.30;;;;;;5020697;28;20026;-76
2022/05/21 01:22:48;;;;;;;;;;;12.20;97.30;;;;;;5002406;28;20041;-77
2022/05/21 01:25:20;;;;;;;20.90;3.60;;;12.20;97.30;;;;;;5004358;28;19910;-77
2022/05/21 01:27:48;;;;;;;18.65;3.45;;;12.20;97.20;;;;;;5003705;28;20100;-77
2022/05/21 01:30:19;;;;;;;13.88;2.90;;;12.20;97.20;;;;;;5003274;28;20053;-75
2022/05/21 01:32:49;;;;;;;16.50;3.15;;;12.10;97.00;;;;;;5006422;28;20054;-75
2022/05/21 01:35:15;;;;;;;;;;;12.10;96.60;;;;;;5006157;28;20088;-76
2022/05/21 01:37:41;;;;;;;18.25;2.78;;;12.10;96.00;;;;;;5005064;28;19909;-76
2022/05/21 01:40:09;;;;;;;18.55;3.17;;;12.10;95.60;;;;;;5005018;28;20478;-77
2022/05/21 01:42:35;;;;;;;15.77;2.58;;;12.10;95.80;;;;;;5004889;28;20133;-77
2022/05/21 01:45:02;;;;;;;13.88;2.80;;;12.00;95.90;;;;;;5006131;28;20492;-75
2022/05/21 01:47:31;;;;;;;12.35;3.08;;;12.10;95.50;;;;;;5004587;28;20038;-76
2022/05/21 01:49:57;;;;;;;11.77;2.50;;;12.00;95.30;;;;;;5008511;28;20108;-76
2022/05/21 01:52:22;;;;;;;13.85;2.80;;;12.00;95.10;;;;;;5007559;28;20180;-76
2022/05/21 01:54:48;;;;;;;15.18;2.60;;;11.90;95.10;;;;;;5008575;28;20030;-76
2022/05/21 01:57:14;;;;;;;16.05;3.30;;;11.90;95.00;;;;;;5006151;28;20026;-77
2022/05/21 01:59:40;;;;;;;15.02;2.90;;;11.90;94.80;;;;;;5002609;28;20801;-77
2022/05/21 02:02:06;;;;;;;13.20;2.83;;;11.90;95.00;;;;;;5002899;28;20042;-77
2022/05/21 02:04:32;;;;;;;12.02;2.35;;;11.90;95.00;;;;;;5005914;28;20029;-77
2022/05/21 02:06:58;;;;;;;16.10;2.75;;;11.90;95.20;;;;;;5000646;28;20153;-76
2022/05/21 02:09:24;;;;;;;14.45;2.53;;;11.90;95.00;;;;;;5003988;28;20179;-77
2022/05/21 02:11:50;;;;;;;14.35;2.53;;;11.90;94.90;;;;;;5004474;28;20026;-76
2022/05/21 02:14:15;;;;;;;15.20;2.67;;;11.90;95.00;;;;;;5005472;28;20033;-76
2022/05/21 02:16:41;;;;;;;16.23;2.70;;;11.90;95.10;;;;;;5005653;28;20416;-76
2022/05/21 02:19:07;;;;;;;15.15;2.53;;;11.90;94.80;;;;;;5007472;28;20045;-76
2022/05/21 02:21:37;;;;;;;15.82;2.75;;;12.00;94.90;;;;;;5021874;28;20125;-76
2022/05/21 02:24:04;;;;;;;15.07;2.97;;;12.00;94.80;;;;;;5019516;28;20022;-76
2022/05/21 02:26:36;;;;;;;16.80;2.55;;;12.00;94.90;;;;;;5004967;28;20092;-76
2022/05/21 02:29:03;;;;;;;15.85;2.90;;;12.00;94.70;;;;;;5006483;28;20046;-76
2022/05/21 02:31:29;;;;;;;12.00;2.80;;;12.00;94.60;;;;;;5004636;28;20095;-76
2022/05/21 02:33:54;;;;;;;12.90;2.58;;;12.00;94.50;;;;;;5030028;28;20468;-76
2022/05/21 02:39:25;;;;;;;14.63;2.88;;;11.90;94.70;;;;;;5006621;28;20042;-77
2022/05/21 02:41:50;;;;;;;12.77;2.65;;;11.90;94.20;;;;;;5005790;28;20130;-76
2022/05/21 02:44:15;;;;;;;12.45;2.75;;;11.90;94.30;;;;;;5007437;28;20131;-76
2022/05/21 02:46:41;;;;;;;12.82;2.28;;;11.90;94.00;;;;;;5006932;28;20480;-76
2022/05/21 02:49:06;;;;;;;10.75;1.90;;;11.90;94.10;;;;;;5005978;28;20076;-75
2022/05/21 02:51:32;;;;;;;10.98;2.40;;;11.90;94.50;;;;;;5003106;28;20372;-76
2022/05/21 02:53:57;;;;;;;11.60;2.17;;;11.90;94.00;;;;;;5006342;28;20055;-77
2022/05/21 02:56:23;;;;;;;11.73;2.30;;;11.80;94.10;;;;;;5020060;28;20140;-76
2022/05/21 02:58:49;;;;;;;14.20;2.45;;;11.80;94.20;;;;;;5004001;28;20042;-76
2022/05/21 03:01:14;;;;;;;10.57;2.17;;;11.80;94.00;;;;;;5007147;28;20052;-76
2022/05/21 03:03:40;;;;;;;12.05;2.17;;;11.80;94.20;;;;;;5021144;28;20486;-76
2022/05/21 03:06:06;;;;;;;11.77;3.08;;;11.80;94.20;;;;;;5004305;28;20033;-75
2022/05/21 03:11:16;;;;;;;15.38;2.55;;;11.80;94.00;;;;;;5003961;28;20032;-77
2022/05/21 03:13:41;;;;;;;11.43;2.40;;;11.80;94.20;;;;;;5004047;28;20037;-76
2022/05/21 03:16:08;;;;;;;10.63;2.30;;;11.80;94.20;;;;;;5005624;28;20107;-77
2022/05/21 03:18:34;;;;;;;10.85;2.17;;;11.70;94.20;;;;;;5007279;28;20025;-77
2022/05/21 03:21:00;;;;;;;12.13;2.20;;;11.70;94.30;;;;;;5006411;28;20099;-76
2022/05/21 03:23:25;;;;;;;7.32;1.73;;;11.70;94.40;;;;;;5000692;28;20034;-77
2022/05/21 03:25:52;;;;;;;12.35;2.20;;;11.70;94.40;;;;;;5004826;28;20527;-78
2022/05/21 03:28:19;;;;;;;11.35;2.53;;;11.70;94.70;;;;;;4999356;28;20022;-76
2022/05/21 03:30:45;;;;;;;12.85;2.70;;;11.70;94.50;;;;;;5000171;28;22272;-76
2022/05/21 03:33:11;;;;;;;11.68;2.25;;;11.70;94.70;;;;;;5002394;28;20034;-76
2022/05/21 03:35:37;;;;;;;10.90;2.35;;;11.70;94.50;;;;;;5003011;28;20030;-76
2022/05/21 03:38:04;;;;;;;15.45;2.55;;;11.70;94.70;;;;;;5003995;28;20033;-76
2022/05/21 03:40:31;;;;;;;13.13;2.17;;;11.70;94.60;;;;;;5018275;28;20044;-76
2022/05/21 03:42:57;;;;;;;14.57;2.15;;;11.70;94.70;;;;;;5003250;28;20037;-76
2022/05/21 03:45:24;;;;;;;11.73;2.13;;;11.70;94.60;;;;;;5006814;28;20022;-76
2022/05/21 03:47:50;;;;;;;13.65;2.95;;;11.70;94.80;;;;;;5006374;28;20052;-75
2022/05/21 03:50:19;;;;;;;12.57;2.30;;;11.70;94.80;;;;;;5005441;28;20029;-75
2022/05/21 03:52:45;;;;;;;12.43;2.20;;;11.70;94.80;;;;;;5003185;28;20416;-74
2022/05/21 03:55:11;;;;;;;13.60;2.08;;;11.70;94.90;;;;;;5001463;28;20109;-74
2022/05/21 03:57:37;;;;;;;11.52;2.25;;;11.60;94.90;;;;;;5006319;28;20026;-75
2022/05/21 04:00:10;;;;;;;11.82;2.33;;;11.60;95.10;;;;;;5001074;28;20033;-75
2022/05/21 04:02:36;;;;;;;13.75;2.38;;;11.60;95.10;;;;;;5006086;28;20075;-75
2022/05/21 04:05:04;;;;;;;14.98;2.88;;;11.60;95.30;;;;;;5005853;28;20041;-76
2022/05/21 04:07:30;;;;;;;17.80;2.55;;;11.50;95.80;;;;;;5017362;28;20034;-74
2022/05/21 04:09:55;;;;;;;17.42;2.67;;;11.50;95.80;;;;;;5005929;28;20388;-76
2022/05/21 04:12:21;;;;;;;16.27;2.53;;;11.50;95.60;;;;;;5003935;28;20042;-76
2022/05/21 04:14:47;;;;;;;18.33;2.60;;;11.50;95.70;;;;;;5006284;28;20507;-75
2022/05/21 04:17:13;;;;;;;8.88;1.92;;;11.50;95.60;;;;;;5005553;28;20030;-76
2022/05/21 04:19:40;;;;;;;8.52;2.13;;;11.50;95.70;;;;;;5004687;28;20091;-74
2022/05/21 04:22:06;;;;;;;13.05;2.50;;;11.50;95.80;;;;;;5003750;28;20022;-75
2022/05/21 04:24:32;;;;;;;11.52;2.50;;;11.50;95.90;;;;;;5004890;28;20025;-75
2022/05/21 04:26:58;;;;;;;12.70;2.50;;;11.50;96.10;;;;;;5006324;28;20034;-75
2022/05/21 04:29:24;;;;;;;12.52;2.13;;;11.40;95.80;;;;;;5035003;28;20069;-75
2022/05/21 04:31:49;;;;;;;10.85;2.20;;;11.40;96.10;;;;;;5002999;28;20049;-76
2022/05/21 04:34:15;;;;;;;12.25;2.38;;;11.40;96.30;;;;;;5003566;28;20057;-75
2022/05/21 04:36:41;;;;;;;10.00;2.25;;;11.40;96.10;;;;;;5004311;28;20034;-76
2022/05/21 04:39:07;;;;;;;10.73;2.53;;;11.40;95.90;;;;;;5001738;28;20074;-75
2022/05/21 04:41:33;;;;;;;12.48;2.33;;;11.40;95.90;;;;;;5005978;28;20133;-74
2022/05/21 04:43:59;;;;;;;14.75;2.50;;;11.50;95.80;;;;;;5007385;28;20034;-76
2022/05/21 04:46:25;;;;;;;11.00;2.20;;;11.50;95.70;;;;;;5035013;28;20034;-74
2022/05/21 04:48:51;;;;;;;11.27;2.50;;;11.50;95.80;;;;;;5009823;28;20030;-75
2022/05/21 04:51:18;;;;;;;13.20;2.47;;;11.50;95.80;;;;;;5021964;28;20036;-74
2022/05/21 04:53:44;;;;;;;14.73;2.25;;;11.50;95.90;;;;;;5008087;28;20057;-77
2022/05/21 04:56:10;;;;;;;13.40;2.67;;;11.50;95.90;;;;;;5005431;28;20137;-75
2022/05/21 04:58:36;;;;;;;13.55;3.17;;;11.50;96.00;;;;;;5009610;28;20435;-75
2022/05/21 05:01:03;;;;;;;14.68;2.63;;;11.50;96.40;;;;;;5008306;28;20041;-74
2022/05/21 05:03:28;;;;;;;13.88;2.78;;;11.50;96.40;;;;;;5005274;28;20545;-74
2022/05/21 05:05:54;;;;;;;15.57;3.20;;;11.50;96.30;;;;;;5004318;28;20038;-77
2022/05/21 05:08:22;;;;;;;12.63;2.33;;;11.50;96.30;;;;;;5000010;28;20082;-73
2022/05/21 05:10:48;;;;;;;16.00;2.92;;;11.50;96.30;;;;;;5008662;28;20044;-75
2022/05/21 05:13:15;;;;;;;11.07;2.60;;;11.60;96.30;;;;;;5007311;28;20100;-75
2022/05/21 05:15:44;;;;;;;13.10;2.35;;;11.60;96.20;;;;;;5008300;28;20037;-75
2022/05/21 05:18:15;;;;;;;16.95;2.97;;;11.70;96.30;;;;;;5003697;28;20160;-73
2022/05/21 05:20:41;;;;;;;11.07;2.53;;;11.70;96.00;;;;;;5001424;28;20030;-75
2022/05/21 05:23:08;;;;;;;19.38;2.75;;;11.80;95.90;;;;;;5002793;28;20427;-78
2022/05/21 05:25:34;;;;;;;12.02;2.30;;;11.90;95.40;;;;;;5003991;28;20437;-76
2022/05/21 05:28:00;;;;;;;14.35;2.70;;;11.90;95.10;;;;;;4997874;28;20141;-75
2022/05/21 05:30:26;;;;;;;17.30;3.03;;;12.10;95.20;;;;;;5004062;28;20775;-76
2022/05/21 05:32:52;;;;;;;13.38;2.80;;;12.10;94.80;;;;;;5003995;28;20033;-75
2022/05/21 05:35:18;;;;;;;11.88;2.80;;;12.10;94.70;;;;;;5023481;28;20037;-75
2022/05/21 05:37:44;;;;;;;13.82;2.58;;;12.20;95.00;;;;;;5021785;28;20475;-76
2022/05/21 05:40:14;;;;;;;17.80;3.03;;;12.20;94.90;;;;;;5005647;28;20032;-76
2022/05/21 05:42:40;;;;;;;14.98;2.80;;;12.20;94.70;;;;;;5003650;28;20038;-75
2022/05/21 05:45:07;;;;;;;12.35;2.40;;;12.30;94.70;;;;;;5008096;28;20044;-75
2022/05/21 05:47:33;;;;;;;12.38;2.33;;;12.40;94.50;;;;;;5008434;28;20420;-76
2022/05/21 05:49:59;;;;;;;14.80;2.90;;;12.40;94.30;;;;;;5007415;28;20107;-74
2022/05/21 05:52:26;;;;;;;13.65;2.35;;;12.40;94.40;;;;;;5008034;28;20387;-74
2022/05/21 05:54:52;;;;;;;20.20;3.35;;;12.50;94.50;;;;;;5007306;28;20105;-74
2022/05/21 05:57:18;;;;;;;18.25;2.80;;;12.50;94.50;;;;;;5008452;28;20108;-74
2022/05/21 05:59:50;;;;;;;15.13;2.80;;;12.60;94.30;;;;;;5007423;28;20029;-76
2022/05/21 06:05:08;;;;;;;15.07;2.60;;;12.70;94.20;;;;;;5002623;28;20110;-76
2022/05/21 06:07:39;;;;;;;15.07;2.60;;;12.70;94.40;;;;;;5003858;28;20033;-75
2022/05/21 06:10:06;;;;;;;17.38;2.70;;;12.80;94.00;;;;;;5005616;28;20050;-76
2022/05/21 06:12:32;;;;;;;17.90;3.42;;;12.80;93.50;;;;;;5006241;28;20026;-76
2022/05/21 06:14:58;;;;;;;12.80;2.88;;;12.90;93.40;;;;;;5005642;28;20018;-75
2022/05/21 06:17:25;;;;;;;12.75;2.65;;;13.00;93.40;;;;;;5006191;28;20052;-74
2022/05/21 06:19:51;;;;;;;11.80;3.10;;;13.10;93.20;;;;;;5007073;28;20057;-75
2022/05/21 06:22:17;;;;;;;19.85;3.17;;;13.20;93.10;;;;;;5006576;28;20026;-75
2022/05/21 06:24:43;;;;;;;12.18;2.08;;;13.20;92.50;;;;;;5007525;28;20026;-75
2022/05/21 06:27:08;;;;;;;14.32;2.80;;;13.30;92.30;;;;;;5000084;28;20035;-75
2022/05/21 06:29:37;;;;;;;13.82;2.22;;;13.50;92.10;;;;;;5003785;28;20108;-75
2022/05/21 06:32:07;;;;;;;15.23;2.33;;;13.50;91.80;;;;;;5004933;28;20593;-74
2022/05/21 06:34:36;;;;;;;17.17;2.35;;;13.60;91.20;;;;;;5002869;28;20103;-75
2022/05/21 06:37:06;;;;;;;15.93;2.95;;;13.60;91.30;;;;;;5000100;28;20033;-75
2022/05/21 06:39:33;;;;;;;13.93;2.15;;;13.50;91.60;;;;;;5006636;28;20030;-75
2022/05/21 06:41:59;;;;;;;13.50;2.80;;;13.50;91.10;;;;;;5004367;28;20030;-76
2022/05/21 06:44:25;;;;;;;12.77;2.15;;;13.60;91.30;;;;;;5005793;28;20034;-75
2022/05/21 06:46:52;;;;;;;20.05;2.85;;;13.70;91.10;;;;;;5002896;28;20049;-77
2022/05/21 06:49:17;;;;;;;15.95;2.33;;;13.80;90.40;;;;;;5005303;28;20116;-76
2022/05/21 06:51:43;;;;;;;11.40;2.72;;;13.80;90.20;;;;;;5005605;28;20109;-75
2022/05/21 06:54:09;;;;;;;13.32;2.50;;;13.80;90.50;;;;;;5001645;28;20030;-74
2022/05/21 06:56:35;;;;;;;10.75;1.70;;;13.90;90.50;;;;;;5005628;28;20088;-76
2022/05/21 06:59:00;;;;;;;13.27;2.38;;;14.00;89.90;;;;;;5005067;28;20041;-78
2022/05/21 07:01:26;;;;;;;9.55;2.08;;;14.10;89.60;;;;;;5001302;28;20036;-75
2022/05/21 07:03:51;;;;;;;12.05;2.50;;;14.30;89.00;;;;;;5007133;28;20026;-75
2022/05/21 07:09:01;;;;;;;14.43;2.17;;;14.60;87.60;;;;;;5004712;28;20032;-75
2022/05/21 07:11:27;;;;;;;10.05;2.10;;;14.60;87.20;;;;;;5017082;28;20035;-75
2022/05/21 07:13:53;;;;;;;12.27;1.90;;;14.70;86.30;;;;;;5009011;28;20037;-76
2022/05/21 07:16:19;;;;;;;12.45;2.00;;;14.60;86.10;;;;;;5002761;28;20069;-76
2022/05/21 07:18:44;;;;;;;9.48;2.05;;;14.50;86.30;;;;;;5011719;28;20500;-75
2022/05/21 07:21:15;;;;;;;18.25;2.60;;;14.40;87.50;;;;;;5007887;28;20034;-75
2022/05/21 07:23:41;;;;;;;10.40;2.33;;;14.40;87.70;;;;;;5007308;28;20041;-73
2022/05/21 07:26:07;;;;;;;14.57;2.33;;;14.50;88.90;;;;;;5001072;28;20049;-75
2022/05/21 07:28:33;;;;;;;14.85;2.15;;;14.70;87.10;;;;;;5004475;28;20171;-75
2022/05/21 07:30:59;;;;;;;13.40;2.45;;;14.90;86.20;;;;;;5013481;28;20132;-74
2022/05/21 07:33:25;;;;;;;12.30;2.67;;;15.10;86.10;;;;;;5023669;28;20174;-74
2022/05/21 07:35:50;;;;;;;12.82;2.47;;;15.20;84.80;;;;;;5035228;28;20113;-76
2022/05/21 07:38:16;;;;;;;10.00;1.88;;;15.30;84.80;;;;;;5008791;28;20022;-75
2022/05/21 07:40:44;;;;;;;13.98;2.15;;;15.40;83.40;;;;;;5016553;28;20460;-75
2022/05/21 07:43:21;;;;;;;11.98;2.15;;;15.40;83.20;;;;;;5002155;28;20511;-75
2022/05/21 07:45:47;;;;;;;9.38;1.90;;;15.40;83.00;;;;;;5004828;28;20033;-75
2022/05/21 07:48:16;;;;;;;15.60;2.70;;;15.40;83.50;;;;;;5022744;28;20025;-75
2022/05/21 07:50:46;;;;;;;9.67;2.37;;;15.30;81.20;;;;;;5001270;28;20113;-75
2022/05/21 07:53:20;;;;;;;10.65;2.15;;;15.30;83.40;;;;;;5009791;28;20044;-76
2022/05/21 07:55:48;;;;;;;9.73;2.22;;;15.40;83.00;;;;;;4995453;28;20508;-76
2022/05/21 07:58:15;;;;;;;12.98;2.10;;;15.50;83.00;;;;;;5004454;28;20029;-75
2022/05/21 08:00:41;;;;;;;10.32;1.90;;;15.60;82.70;;;;;;5000082;28;20066;-76
2022/05/21 08:03:09;;;;;;;11.68;2.17;;;15.60;82.00;;;;;;4999646;28;20025;-76
2022/05/21 08:05:39;;;;;;;8.65;2.15;;;15.70;81.30;;;;;;5000061;28;20026;-74
2022/05/21 08:08:06;;;;;;;12.30;2.38;;;15.70;81.70;;;;;;5005004;28;20828;-75
2022/05/21 08:10:32;;;;;;;8.98;2.30;;;15.90;80.90;;;;;;5020803;28;20413;-76
2022/05/21 08:12:58;;;;;;;12.63;2.05;;;16.10;79.30;;;;;;5005241;28;20042;-75
2022/05/21 08:15:24;;;;;;;15.27;2.35;;;16.20;80.00;;;;;;5006673;28;20034;-76
2022/05/21 08:17:50;;;;;;;11.15;2.00;;;16.30;77.10;;;;;;5000866;28;20038;-75
2022/05/21 08:20:16;;;;;;;10.93;2.17;;;16.40;78.80;;;;;;5009111;28;20073;-76
2022/05/21 08:28:13;;;;;;;8.70;1.75;;;16.60;74.30;;;;;;5008205;28;20033;-75
2022/05/21 08:30:44;;;;;;;10.25;1.92;;;16.60;76.10;;;;;;5005360;28;20064;-76
2022/05/21 08:33:11;;;;;;;12.93;2.38;;;16.60;75.50;;;;;;5002127;28;20044;-75
2022/05/21 08:35:39;;;;;;;12.50;1.80;;;16.40;74.70;;;;;;5007965;28;20029;-77
2022/05/21 08:38:09;;;;;;;10.93;2.45;;;16.40;77.40;;;;;;5025100;28;20037;-76
2022/05/21 08:40:57;;;;;;;13.55;2.50;;;16.60;77.10;;;;;;5009565;28;20057;-77
2022/05/21 08:43:35;;;;;;;10.52;2.17;;;16.80;78.40;;;;;;5005522;28;20022;-75
2022/05/21 08:46:17;;;;;;;10.75;2.25;;;17.00;73.10;;;;;;5022419;28;20038;-74
2022/05/21 08:48:54;;;;;;;12.20;2.33;;;16.90;72.20;;;;;;5011715;28;20030;-75
2022/05/21 08:51:22;;;;;;;10.57;1.98;;;16.80;76.40;;;;;;5009556;28;20061;-76
2022/05/21 08:53:50;;;;;;;10.02;1.90;;;16.90;74.90;;;;;;5002819;28;20057;-74
2022/05/21 08:56:18;;;;;;;8.38;1.75;;;16.90;71.10;;;;;;5031512;28;20416;-75
2022/05/21 08:58:57;;;;;;;10.77;2.35;;;17.00;73.20;;;;;;5010144;28;20061;-76
2022/05/21 09:01:24;;;;;;;11.45;1.92;;;17.00;73.50;;;;;;5003872;28;20034;-73
2022/05/21 09:03:53;;;;;;;11.80;2.22;;;17.00;71.70;;;;;;5004630;28;20034;-76
2022/05/21 09:06:18;;;;;;;10.27;2.10;;;17.10;73.40;;;;;;5001703;28;20077;-74
2022/05/21 09:08:55;;;;;;;9.25;1.83;;;17.10;70.20;;;;;;5006895;28;20054;-75
2022/05/21 09:11:40;;;;;;;9.52;1.90;;;17.00;70.40;;;;;;5004939;28;20384;-76
2022/05/21 09:14:21;;;;;;;11.63;1.92;;;17.00;72.90;;;;;;4997525;28;20054;-75
2022/05/21 09:16:55;;;;;;;9.77;1.98;;;17.00;74.00;;;;;;5030731;28;20459;-76
2022/05/21 09:19:23;;;;;;;8.32;1.70;;;17.10;73.80;;;;;;5005996;28;20029;-74
2022/05/21 09:21:55;;;;;;;11.00;2.22;;;17.30;70.50;;;;;;5006545;28;20475;-75
2022/05/21 09:24:45;;;;;;;10.13;1.65;;;17.30;70.70;;;;;;5007624;28;20027;-76
2022/05/21 09:27:33;;;;;;;10.32;1.90;;;17.20;70.40;;;;;;5004216;28;20125;-76
2022/05/21 09:30:26;;;;;;;10.20;1.67;;;17.10;70.80;;;;;;5003788;28;20057;-75
2022/05/21 09:32:56;;;;;;;8.27;1.55;;;17.10;72.20;;;;;;5002606;28;20707;-76
2022/05/21 09:35:23;;;;;;;;;;;17.20;74.00;;;;;;5007655;28;20554;-77
2022/05/21 09:37:49;;;;;;;10.45;2.20;;;17.30;70.30;;;;;;5024556;28;19909;-78
2022/05/21 09:40:35;;;;;;;9.32;1.65;;;17.50;70.80;;;;;;5007952;28;20104;-75
2022/05/21 09:46:17;;;;;;;8.63;1.92;;;17.30;69.70;;;;;;5004021;28;20631;-78
2022/05/21 09:48:45;;;;;;;8.55;1.80;;;17.30;70.80;;;;;;5001798;28;20041;-76
2022/05/21 09:51:32;;;;;;;7.97;1.60;;;17.30;71.60;;;;;;5003245;28;20026;-75
2022/05/21 09:53:59;;;;;;;8.98;1.58;;;17.40;69.10;;;;;;5005607;28;20469;-76
2022/05/21 09:56:34;;;;;;;7.38;1.70;;;17.30;69.50;;;;;;5003115;28;20045;-75
2022/05/21 09:59:15;;;;;;;8.40;1.80;;;17.20;71.50;;;;;;5006230;28;20026;-76
2022/05/21 10:01:42;;;;;;;11.38;1.50;;;17.30;71.30;;;;;;5006734;28;20126;-77
2022/05/21 10:04:19;;;;;;;10.27;2.15;;;17.30;68.20;;;;;;5024543;28;22851;-74
2022/05/21 10:07:03;;;;;;;8.52;1.70;;;17.30;70.30;;;;;;5004354;28;20034;-75
2022/05/21 10:12:28;;;;;;;7.72;1.70;;;17.40;71.30;;;;;;5004809;28;20061;-78
2022/05/21 10:15:13;;;;;;;8.52;1.90;;;17.60;69.00;;;;;;5005673;28;20066;-78
2022/05/21 10:17:51;;;;;;;9.82;1.92;;;17.80;68.50;;;;;;5003858;28;20121;-78
2022/05/21 10:20:26;;;;;;;8.57;2.10;;;17.90;67.20;;;;;;4999351;28;20096;-77
2022/05/21 10:23:10;;;;;;;8.98;1.63;;;18.00;66.10;;;;;;5002994;28;20061;-77
2022/05/21 10:26:01;;;;;;;12.70;2.03;;;18.20;66.40;;;;;;5005932;28;20165;-79
2022/05/21 10:28:54;;;;;;;5.97;1.58;;;18.40;67.80;;;;;;4998156;28;20045;-78
2022/05/21 10:31:58;;;;;;;8.85;1.52;;;18.50;67.60;;;;;;5016908;28;20034;-78
2022/05/21 10:34:43;;;;;;;9.15;1.98;;;18.70;67.70;;;;;;5002474;28;20089;-77
2022/05/21 10:37:40;;;;;;;8.27;1.70;;;18.80;67.50;;;;;;5002938;28;20026;-79
2022/05/21 10:40:23;;;;;;;6.82;1.80;;;18.80;63.70;;;;;;5000532;28;20030;-77
2022/05/21 10:42:57;;;;;;;8.23;1.73;;;18.80;64.90;;;;;;5001139;28;20139;-77
2022/05/21 10:45:31;;;;;;;11.45;1.80;;;18.80;66.00;;;;;;5004236;28;20034;-77
2022/05/21 10:48:05;;;;;;;9.60;1.90;;;19.00;70.30;;;;;;5001448;28;20157;-78
2022/05/21 10:50:50;;;;;;;10.85;2.05;;;19.20;66.50;;;;;;5003822;28;20123;-79
2022/05/21 10:53:42;;;;;;;12.43;1.92;;;19.20;65.20;;;;;;5003787;28;20715;-78
2022/05/21 10:56:07;;;;;;;10.18;1.45;;;19.10;62.80;;;;;;5009925;28;20034;-77
2022/05/21 10:59:08;;;;;;;8.45;1.83;;;19.10;62.40;;;;;;5009962;28;20030;-77
2022/05/21 11:01:48;;;;;;;10.38;2.20;;;19.10;63.00;;;;;;4985083;28;20057;-79
2022/05/21 11:04:38;;;;;;;9.38;1.98;;;19.20;62.90;;;;;;5008789;28;20622;-78
2022/05/21 11:07:34;;;;;;;9.38;2.03;;;19.50;63.60;;;;;;5005619;28;20385;-79
2022/05/21 11:10:10;;;;;;;7.70;1.48;;;19.50;62.40;;;;;;4991335;28;20065;-77
2022/05/21 11:12:48;;;;;;;8.10;1.73;;;19.70;60.10;;;;;;5005631;28;20026;-77
2022/05/21 11:15:26;;;;;;;7.35;1.63;;;19.80;63.50;;;;;;5005851;28;20105;-78
2022/05/21 11:18:00;;;;;;;9.15;1.88;;;19.70;61.00;;;;;;5004607;28;20128;-79
2022/05/21 11:20:33;;;;;;;8.93;1.95;;;20.00;62.20;;;;;;5005974;28;20073;-77
2022/05/21 11:23:04;;;;;;;9.60;1.88;;;20.10;60.00;;;;;;4989186;28;20074;-78
2022/05/21 11:25:46;;;;;;;12.20;2.25;;;19.80;60.70;;;;;;4996653;28;20509;-78
2022/05/21 11:28:38;;;;;;;9.38;1.80;;;19.90;63.90;;;;;;5006864;28;20112;-79
2022/05/21 11:31:12;;;;;;;8.88;1.77;;;20.20;61.70;;;;;;4998878;28;20061;-78
2022/05/21 11:39:14;;;;;;;10.15;2.15;;;22.80;59.50;;;;;;5004968;28;20570;-79
2022/05/21 11:41:59;;;;;;;9.13;1.85;;;21.70;61.40;;;;;;5001853;28;20030;-77
2022/05/21 11:44:58;;;;;;;9.73;2.42;;;20.80;61.50;;;;;;5026543;28;20113;-79
2022/05/21 11:47:26;;;;;;;12.05;2.17;;;20.40;63.30;;;;;;5022597;28;20038;-78
2022/05/21 11:49:57;;;;;;;13.52;2.05;;;20.20;65.60;;;;;;5003934;28;20165;-78
2022/05/21 11:52:26;;;;;;;12.77;1.95;;;20.30;65.60;;;;;;4994964;28;20038;-80
2022/05/21 11:54:55;;;;;;;10.67;2.33;;;20.50;66.90;;;;;;5038479;28;20550;-79
2022/05/21 11:57:44;;;;;;;10.73;2.05;;;20.40;66.90;;;;;;5012946;28;20037;-78
2022/05/21 12:00:16;;;;;;;11.25;2.10;;;20.70;62.80;;;;;;5015888;28;20048;-80
2022/05/21 12:02:53;;;;;;;13.60;1.95;;;20.90;62.80;;;;;;5001187;28;20108;-80
2022/05/21 12:05:37;;;;;;;11.23;2.25;;;20.70;65.20;;;;;;5027983;28;20464;-79
2022/05/21 12:08:22;;;;;;;10.13;1.85;;;20.10;65.50;;;;;;5005837;28;20030;-78
2022/05/21 12:11:07;;;;;;;8.65;2.20;;;19.70;66.00;;;;;;4999732;28;20034;-78
2022/05/21 12:13:35;;;;;;;6.78;1.55;;;19.60;63.50;;;;;;5007839;28;20061;-77
2022/05/21 12:16:16;;;;;;;7.80;1.80;;;19.60;66.40;;;;;;5002401;28;20373;-78
2022/05/21 12:18:54;;;;;;;9.73;1.98;;;19.70;62.80;;;;;;5016833;28;20033;-78
2022/05/21 12:21:29;;;;;;;11.15;2.25;;;19.50;60.40;;;;;;5001032;28;20491;-78
2022/05/21 12:23:57;;;;;;;10.13;2.05;;;19.20;66.70;;;;;;5018865;28;20026;-78
2022/05/21 12:26:25;;;;;;;10.00;2.15;;;19.20;69.30;;;;;;4999645;28;20034;-80
2022/05/21 12:29:18;;;;;;;10.52;1.73;;;19.40;67.30;;;;;;5004030;28;20084;-78
2022/05/21 12:31:50;;;;;;;13.07;2.60;;;19.70;68.40;;;;;;5005076;28;20537;-80
2022/05/21 12:34:37;;;;;;;10.90;2.20;;;19.90;66.40;;;;;;5006796;28;20064;-78
2022/05/21 12:37:06;;;;;;;11.70;2.10;;;19.90;70.80;;;;;;5000517;28;20689;-78
2022/05/21 12:40:00;;;;;;;12.18;2.47;;;20.00;68.00;;;;;;5002698;28;20614;-79
2022/05/21 12:42:37;;;;;;;14.85;2.88;;;20.00;70.80;;;;;;4994448;28;20096;-82
2022/05/21 12:45:03;;;;;;;15.63;2.70;;;19.80;70.30;;;;;;5032500;28;20120;-80
2022/05/21 12:47:42;;;;;;;10.13;1.98;;;19.80;67.00;;;;;;5000007;28;20030;-79
2022/05/21 12:50:15;;;;;;;13.27;2.40;;;19.70;67.80;;;;;;4997867;28;20112;-79
2022/05/21 12:52:49;;;;;;;10.52;1.80;;;19.70;69.50;;;;;;5007059;28;20335;-80
2022/05/21 12:55:25;;;;;;;10.95;1.90;;;19.70;68.40;;;;;;5019497;28;20495;-78
2022/05/21 12:57:54;;;;;;;11.65;2.08;;;19.70;66.30;;;;;;5036245;28;20042;-81
2022/05/21 13:00:21;;;;;;;15.38;2.80;;;19.60;67.90;;;;;;5000503;28;20072;-77
2022/05/21 13:02:51;;;;;;;15.40;2.83;;;19.50;70.00;;;;;;4993614;28;20030;-79
2022/05/21 13:05:32;;;;;;;12.45;2.38;;;19.60;71.20;;;;;;4996662;28;20182;-80
2022/05/21 13:08:02;;;;;;;16.40;2.83;;;19.40;70.30;;;;;;5005066;28;20096;-79
2022/05/21 13:10:31;;;;;;;12.68;2.50;;;19.40;72.10;;;;;;5003316;28;20104;-78
2022/05/21 13:13:08;;;;;;;10.13;2.45;;;19.40;72.50;;;;;;5018291;28;20042;-80
2022/05/21 13:15:42;;;;;;;17.83;3.00;;;19.40;70.80;;;;;;5005111;28;20030;-76
2022/05/21 13:18:26;;;;;;;12.00;2.60;;;19.20;73.40;;;;;;5005889;28;20045;-80
2022/05/21 13:21:04;;;;;;;14.75;2.70;;;19.10;72.70;;;;;;5006753;28;20084;-77
2022/05/21 13:23:38;;;;;;;9.98;2.50;;;19.00;73.60;;;;;;5030043;28;20121;-77
2022/05/21 13:26:04;;;;;;;12.18;2.47;;;19.10;72.80;;;;;;5003353;28;20511;-78